createdAt,value
2018-09-06T00:00:59.142Z,97189.00
2018-09-06T00:03:39.835Z,97191.00
2018-09-06T00:06:22.336Z,97187.00
2018-09-06T00:09:02.813Z,97183.00
2018-09-06T00:11:51.517Z,97174.00
2018-09-06T00:14:32.254Z,97180.00
2018-09-06T00:17:12.878Z,97190.00
2018-09-06T00:19:53.437Z,97190.00
2018-09-06T00:22:33.883Z,97189.00
2018-09-06T00:25:14.508Z,97182.00
2018-09-06T00:27:55.124Z,97190.00
2018-09-06T00:30:35.675Z,97190.00
2018-09-06T00:33:17.483Z,97190.00
2018-09-06T00:35:58.160Z,97187.00
2018-09-06T00:38:38.770Z,97176.00
2018-09-06T00:41:21.795Z,97175.00
2018-09-06T00:44:02.404Z,97182.00
2018-09-06T00:46:42.996Z,97179.00
2018-09-06T00:49:23.588Z,97193.00
2018-09-06T00:52:04.203Z,97174.00
2018-09-06T00:54:44.758Z,97172.00
2018-09-06T00:57:25.427Z,97173.00
2018-09-06T01:00:06.046Z,97165.00
2018-09-06T01:02:47.492Z,97169.00
2018-09-06T01:05:29.289Z,97170.00
2018-09-06T01:08:09.800Z,97172.00
2018-09-06T01:10:52.745Z,97164.00
2018-09-06T01:13:33.304Z,97167.00
2018-09-06T01:16:13.925Z,97166.00
2018-09-06T01:18:55.517Z,97170.00
2018-09-06T01:21:36.011Z,97166.00
2018-09-06T01:24:17.488Z,97161.00
2018-09-06T01:26:59.187Z,97164.00
2018-09-06T01:29:39.673Z,97162.00
2018-09-06T01:32:21.870Z,97169.00
2018-09-06T01:35:02.457Z,97165.00
2018-09-06T01:37:43.072Z,97163.00
2018-09-06T01:40:23.642Z,97157.00
2018-09-06T01:43:05.051Z,97157.00
2018-09-06T01:45:45.566Z,97158.00
2018-09-06T01:48:26.193Z,97158.00
2018-09-06T01:51:06.798Z,97156.00
2018-09-06T01:53:48.459Z,97157.00
2018-09-06T01:56:29.364Z,97156.00
2018-09-06T01:59:09.923Z,97163.00
2018-09-06T02:01:51.592Z,97152.00
2018-09-06T02:04:32.813Z,97156.00
2018-09-06T02:07:13.412Z,97160.00
2018-09-06T02:09:53.984Z,97149.00
2018-09-06T02:12:34.546Z,97154.00
2018-09-06T02:15:15.190Z,97150.00
2018-09-06T02:44:08.384Z,97132.00
2018-09-06T02:46:50.238Z,97132.00
2018-09-06T02:49:35.835Z,97130.00
2018-09-06T02:52:16.197Z,97134.00
2018-09-06T02:54:56.796Z,97138.00
2018-09-06T02:57:37.161Z,97139.00
2018-09-06T03:00:23.369Z,97138.00
2018-09-06T03:03:04.110Z,97138.00
2018-09-06T03:05:44.510Z,97128.00
2018-09-06T03:08:26.132Z,97136.00
2018-09-06T03:11:12.982Z,97126.00
2018-09-06T03:13:55.303Z,97122.00
2018-09-06T03:16:35.732Z,97123.00
2018-09-06T03:19:16.230Z,97126.00
2018-09-06T03:21:56.745Z,97124.00
2018-09-06T03:24:37.346Z,97118.00
2018-09-06T03:27:17.809Z,97124.00
2018-09-06T03:29:58.394Z,97122.00
2018-09-06T03:32:38.893Z,97138.00
2018-09-06T03:35:20.340Z,97129.00
2018-09-06T03:38:00.766Z,97137.00
2018-09-06T03:40:41.598Z,97133.00
2018-09-06T03:43:24.363Z,97140.00
2018-09-06T03:46:06.190Z,97140.00
2018-09-06T03:48:46.585Z,97144.00
2018-09-06T03:51:26.976Z,97136.00
2018-09-06T03:54:07.398Z,97133.00
2018-09-06T03:56:47.981Z,97132.00
2018-09-06T03:59:29.012Z,97134.00
2018-09-06T04:02:09.570Z,97135.00
2018-09-06T04:04:51.089Z,97141.00
2018-09-06T04:07:32.135Z,97147.00
2018-09-06T04:10:12.629Z,97147.00
2018-09-06T04:12:54.786Z,97147.00
2018-09-06T04:15:35.297Z,97144.00
2018-09-06T04:18:15.893Z,97144.00
2018-09-06T04:20:56.528Z,97150.00
2018-09-06T04:23:37.146Z,97145.00
2018-09-06T04:26:17.658Z,97143.00
2018-09-06T04:28:58.214Z,97137.00
2018-09-06T04:31:38.829Z,97140.00
2018-09-06T04:34:21.533Z,97145.00
2018-09-06T04:37:02.015Z,97148.00
2018-09-06T04:39:42.568Z,97148.00
2018-09-06T04:42:24.860Z,97139.00
2018-09-06T04:45:05.565Z,97148.00
2018-09-06T04:47:46.154Z,97142.00
2018-09-06T04:50:26.776Z,97140.00
2018-09-06T04:53:07.235Z,97133.00
2018-09-06T04:55:47.612Z,97137.00
2018-09-06T04:58:28.362Z,97147.00
2018-09-06T05:01:08.954Z,97138.00
2018-09-06T05:03:50.508Z,97148.00
2018-09-06T05:06:30.969Z,97138.00
2018-09-06T05:09:11.669Z,97134.00
2018-09-06T05:11:54.813Z,97136.00
2018-09-06T05:14:35.362Z,97136.00
2018-09-06T05:17:15.977Z,97141.00
2018-09-06T05:19:56.568Z,97144.00
2018-09-06T05:22:37.977Z,97133.00
2018-09-06T05:25:18.557Z,97141.00
2018-09-06T05:27:59.082Z,97140.00
2018-09-06T05:30:39.920Z,97145.00
2018-09-06T05:33:23.184Z,97134.00
2018-09-06T05:36:03.693Z,97134.00
2018-09-06T05:38:44.146Z,97140.00
2018-09-06T05:41:25.956Z,97152.00
2018-09-06T05:44:06.407Z,97142.00
2018-09-06T05:46:46.816Z,97147.00
2018-09-06T05:49:27.233Z,97153.00
2018-09-06T05:52:07.749Z,97146.00
2018-09-06T05:54:48.391Z,97150.00
2018-09-06T05:57:30.042Z,97153.00
2018-09-06T06:00:15.702Z,97153.00
2018-09-06T06:02:57.888Z,97154.00
2018-09-06T06:05:38.268Z,97154.00
2018-09-06T06:08:36.976Z,97152.00
2018-09-06T06:11:18.300Z,97164.00
2018-09-06T06:14:29.209Z,97157.00
2018-09-06T06:17:09.849Z,97175.00
2018-09-06T06:19:53.147Z,97176.00
2018-09-06T06:22:33.748Z,97166.00
2018-09-06T06:25:15.053Z,97168.00
2018-09-06T06:27:57.264Z,97171.00
2018-09-06T06:30:37.845Z,97171.00
2018-09-06T06:33:18.511Z,97159.00
2018-09-06T06:35:59.432Z,97161.00
2018-09-06T06:38:40.125Z,97170.00
2018-09-06T06:41:23.926Z,97169.00
2018-09-06T06:44:04.702Z,97174.00
2018-09-06T06:46:45.431Z,97167.00
2018-09-06T06:49:26.661Z,97166.00
2018-09-06T06:52:08.237Z,97163.00
2018-09-06T06:54:49.002Z,97173.00
2018-09-06T06:57:29.522Z,97163.00
2018-09-06T07:00:10.208Z,97166.00
2018-09-06T07:02:53.950Z,97154.00
2018-09-06T07:05:34.579Z,97160.00
2018-09-06T07:08:15.023Z,97163.00
2018-09-06T07:10:56.797Z,97158.00
2018-09-06T07:13:37.332Z,97160.00
2018-09-06T07:16:17.923Z,97153.00
2018-09-06T07:18:58.493Z,97154.00
2018-09-06T07:21:39.273Z,97158.00
2018-09-06T07:24:21.149Z,97156.00
2018-09-06T07:27:01.737Z,97153.00
2018-09-06T07:29:42.219Z,97158.00
2018-09-06T07:32:25.466Z,97169.00
2018-09-06T07:35:06.761Z,97165.00
2018-09-06T07:37:47.172Z,97167.00
2018-09-06T07:40:27.788Z,97165.00
2018-09-06T07:43:08.364Z,97169.00
2018-09-06T07:45:48.802Z,97155.00
2018-09-06T07:48:29.401Z,97173.00
2018-09-06T07:51:10.111Z,97169.00
2018-09-06T07:53:54.026Z,97174.00
2018-09-06T07:56:34.409Z,97172.00
2018-09-06T07:59:15.041Z,97166.00
2018-09-06T08:01:56.686Z,97164.00
2018-09-06T08:04:37.261Z,97157.00
2018-09-06T08:07:17.861Z,97155.00
2018-09-06T08:09:58.292Z,97161.00
2018-09-06T08:12:38.905Z,97162.00
2018-09-06T08:15:23.901Z,97167.00
2018-09-06T08:18:04.620Z,97168.00
2018-09-06T08:20:45.294Z,97156.00
2018-09-06T08:23:26.695Z,97159.00
2018-09-06T08:26:07.327Z,97167.00
2018-09-06T08:28:47.883Z,97165.00
2018-09-06T08:31:28.579Z,97146.00
2018-09-06T08:34:09.212Z,97154.00
2018-09-06T08:36:50.974Z,97161.00
2018-09-06T08:39:31.524Z,97155.00
2018-09-06T08:42:12.186Z,97158.00
2018-09-06T08:44:55.465Z,97162.00
2018-09-06T08:47:35.942Z,97155.00
2018-09-06T08:50:16.530Z,97151.00
2018-09-06T08:52:57.408Z,97153.00
2018-09-06T08:55:37.819Z,97154.00
2018-09-06T08:58:18.523Z,97150.00
2018-09-06T09:01:04.901Z,97143.00
2018-09-06T09:03:45.386Z,97134.00
2018-09-06T09:06:26.870Z,97133.00
2018-09-06T09:09:15.304Z,97133.00
2018-09-06T09:11:56.833Z,97133.00
2018-09-06T09:14:37.909Z,97133.00
2018-09-06T09:17:18.396Z,97121.00
2018-09-06T09:19:58.996Z,97123.00
2018-09-06T09:22:39.473Z,97122.00
2018-09-06T09:25:21.023Z,97114.00
2018-09-06T09:28:01.537Z,97121.00
2018-09-06T09:30:42.826Z,97124.00
2018-09-06T09:33:25.546Z,97119.00
2018-09-06T09:36:06.231Z,97113.00
2018-09-06T09:38:47.735Z,97114.00
2018-09-06T09:41:31.333Z,97108.00
2018-09-06T09:44:11.947Z,97113.00
2018-09-06T09:49:35.193Z,97120.00
2018-09-06T09:52:15.987Z,97116.00
2018-09-06T09:54:56.557Z,97114.00
2018-09-06T09:57:37.105Z,97111.00
2018-09-06T10:00:21.912Z,97111.00
2018-09-06T10:03:07.532Z,97113.00
2018-09-06T10:05:51.063Z,97104.00
2018-09-06T10:08:36.929Z,97108.00
2018-09-06T10:11:17.407Z,97100.00
2018-09-06T10:13:58.013Z,97102.00
2018-09-06T10:16:38.532Z,97098.00
2018-09-06T10:19:20.919Z,97097.00
2018-09-06T10:22:01.381Z,97100.00
2018-09-06T10:24:42.135Z,97088.00
2018-09-06T10:27:25.338Z,97090.00
2018-09-06T10:30:05.996Z,97076.00
2018-09-06T10:32:46.601Z,97076.00
2018-09-06T10:35:27.245Z,97073.00
2018-09-06T10:38:07.845Z,97079.00
2018-09-06T10:40:48.425Z,97074.00
2018-09-06T10:43:28.929Z,97070.00
2018-09-06T10:46:09.520Z,97068.00
2018-09-06T10:48:51.817Z,97065.00
2018-09-06T10:51:33.173Z,97069.00
2018-09-06T10:54:13.599Z,97067.00
2018-09-06T10:56:55.341Z,97065.00
2018-09-06T10:59:35.863Z,97064.00
2018-09-06T11:02:16.332Z,97055.00
2018-09-06T11:04:56.801Z,97056.00
2018-09-06T11:07:37.247Z,97059.00
2018-09-06T11:10:17.848Z,97054.00
2018-09-06T11:12:58.592Z,97055.00
2018-09-06T11:15:39.396Z,97055.00
2018-09-06T11:18:21.817Z,97058.00
2018-09-06T11:21:02.486Z,97052.00
2018-09-06T11:23:44.101Z,97058.00
2018-09-06T11:26:25.870Z,97053.00
2018-09-06T11:29:06.526Z,97055.00
2018-09-06T11:31:47.188Z,97058.00
2018-09-06T11:34:27.837Z,97051.00
2018-09-06T11:37:08.497Z,97045.00
2018-09-06T11:39:48.959Z,97039.00
2018-09-06T11:42:29.512Z,97043.00
2018-09-06T11:45:10.119Z,97039.00
2018-09-06T11:47:51.795Z,97033.00
2018-09-06T11:50:32.246Z,97032.00
2018-09-06T11:53:12.681Z,97038.00
2018-09-06T11:55:55.997Z,97038.00
2018-09-06T11:58:37.042Z,97033.00
2018-09-06T12:01:17.882Z,97036.00
2018-09-06T12:03:58.809Z,97028.00
2018-09-06T12:06:40.361Z,97016.00
2018-09-06T12:09:24.237Z,97025.00
2018-09-06T12:12:05.551Z,97018.00
2018-09-06T12:14:46.229Z,97015.00
2018-09-06T12:17:27.462Z,97018.00
2018-09-06T12:20:09.111Z,97015.00
2018-09-06T12:22:51.918Z,97025.00
2018-09-06T12:25:32.899Z,97016.00
2018-09-06T12:28:14.497Z,97013.00
2018-09-06T12:30:57.138Z,97017.00
2018-09-06T12:33:38.007Z,97008.00
2018-09-06T12:36:18.988Z,97015.00
2018-09-06T12:39:00.404Z,97008.00
2018-09-06T12:41:41.315Z,97008.00
2018-09-06T12:44:26.049Z,97002.00
2018-09-06T12:47:07.053Z,97010.00
2018-09-06T12:49:48.153Z,97001.00
2018-09-06T12:52:30.303Z,96991.00
2018-09-06T12:55:11.864Z,96992.00
2018-09-06T12:57:55.627Z,96996.00
2018-09-06T13:00:36.707Z,96996.00
2018-09-06T13:03:18.170Z,96989.00
2018-09-06T13:05:59.179Z,97003.00
2018-09-06T13:08:40.212Z,96990.00
2018-09-06T13:11:23.430Z,96986.00
2018-09-06T13:14:04.593Z,96990.00
2018-09-06T13:16:45.294Z,96985.00
2018-09-06T13:19:26.748Z,96987.00
2018-09-06T13:22:07.373Z,96977.00
2018-09-06T13:24:47.846Z,96974.00
2018-09-06T13:27:28.580Z,96977.00
2018-09-06T13:30:09.309Z,96969.00
2018-09-06T13:32:53.338Z,96966.00
2018-09-06T13:35:33.965Z,96963.00
2018-09-06T13:38:14.630Z,96962.00
2018-09-06T13:40:56.241Z,96968.00
2018-09-06T13:43:36.838Z,96967.00
2018-09-06T13:46:17.421Z,96968.00
2018-09-06T13:48:58.167Z,96968.00
2018-09-06T13:51:38.759Z,96969.00
2018-09-06T13:54:19.524Z,96970.00
2018-09-06T13:57:00.030Z,96961.00
2018-09-06T13:59:40.605Z,96972.00
2018-09-06T14:02:22.673Z,96958.00
2018-09-06T14:05:03.637Z,96956.00
2018-09-06T14:07:44.214Z,96961.00
2018-09-06T14:10:27.255Z,96958.00
2018-09-06T14:13:07.789Z,96957.00
2018-09-06T14:15:48.526Z,96959.00
2018-09-06T14:18:29.143Z,96961.00
2018-09-06T14:21:09.782Z,96955.00
2018-09-06T14:23:57.004Z,96954.00
2018-09-06T14:26:38.335Z,96953.00
2018-09-06T14:29:18.975Z,96939.00
2018-09-06T14:31:59.896Z,96942.00
2018-09-06T14:34:40.615Z,96940.00
2018-09-06T14:37:22.291Z,96930.00
2018-09-06T14:40:03.157Z,96938.00
2018-09-06T14:42:43.963Z,96930.00
2018-09-06T14:45:27.930Z,96934.00
2018-09-06T14:48:08.638Z,96933.00
2018-09-06T14:50:50.188Z,96926.00
2018-09-06T14:53:48.543Z,96926.00
2018-09-06T14:56:28.900Z,96921.00
2018-09-06T14:59:09.433Z,96918.00
2018-09-06T15:01:50.084Z,96916.00
2018-09-06T15:04:30.752Z,96909.00
2018-09-06T15:07:11.926Z,96905.00
2018-09-06T15:09:55.134Z,96913.00
2018-09-06T15:12:35.816Z,96904.00
2018-09-06T15:15:16.420Z,96912.00
2018-09-06T15:17:58.178Z,96913.00
2018-09-06T15:20:38.761Z,96911.00
2018-09-06T15:23:22.570Z,96901.00
2018-09-06T15:26:03.153Z,96908.00
2018-09-06T15:28:43.770Z,96908.00
2018-09-06T15:31:27.362Z,96919.00
2018-09-06T15:34:07.933Z,96916.00
2018-09-06T15:36:48.884Z,96912.00
2018-09-06T15:39:29.349Z,96912.00
2018-09-06T15:42:09.889Z,96912.00
2018-09-06T15:44:50.448Z,96906.00
2018-09-06T15:47:31.013Z,96906.00
2018-09-06T15:50:11.529Z,96905.00
2018-09-06T15:52:56.717Z,96902.00
2018-09-06T15:55:37.329Z,96911.00
2018-09-06T15:58:17.932Z,96909.00
2018-09-06T16:00:58.600Z,96908.00
2018-09-06T16:03:39.505Z,96911.00
2018-09-06T16:06:20.530Z,96907.00
2018-09-06T16:09:01.043Z,96903.00
2018-09-06T16:11:41.635Z,96909.00
2018-09-06T16:14:23.949Z,96906.00
2018-09-06T16:17:04.521Z,96904.00
2018-09-06T16:19:45.239Z,96901.00
2018-09-06T16:22:27.541Z,96898.00
2018-09-06T16:25:08.033Z,96909.00
2018-09-06T16:27:48.671Z,96905.00
2018-09-06T16:30:29.391Z,96907.00
2018-09-06T16:33:09.942Z,96912.00
2018-09-06T16:35:50.611Z,96898.00
2018-09-06T16:38:31.219Z,96900.00
2018-09-06T16:41:11.827Z,96901.00
2018-09-06T16:43:53.620Z,96909.00
2018-09-06T16:46:34.041Z,96911.00
2018-09-06T16:49:14.664Z,96910.00
2018-09-06T16:51:56.609Z,96903.00
2018-09-06T16:54:37.208Z,96901.00
2018-09-06T16:57:17.794Z,96909.00
2018-09-06T16:59:58.609Z,96908.00
2018-09-06T17:02:39.191Z,96898.00
2018-09-06T17:05:19.804Z,96901.00
2018-09-06T17:08:00.429Z,96899.00
2018-09-06T17:10:41.034Z,96904.00
2018-09-06T17:13:23.058Z,96910.00
2018-09-06T17:16:03.636Z,96906.00
2018-09-06T17:18:44.249Z,96909.00
2018-09-06T17:21:26.913Z,96906.00
2018-09-06T17:24:07.489Z,96894.00
2018-09-06T17:26:48.017Z,96894.00
2018-09-06T17:29:29.154Z,96897.00
2018-09-06T17:32:10.558Z,96899.00
2018-09-06T17:34:57.212Z,96898.00
2018-09-06T17:37:37.804Z,96906.00
2018-09-06T17:40:18.441Z,96904.00
2018-09-06T17:42:59.678Z,96905.00
2018-09-06T17:45:40.313Z,96909.00
2018-09-06T17:48:21.111Z,96904.00
2018-09-06T17:51:02.678Z,96903.00
2018-09-06T17:53:43.405Z,96912.00
2018-09-06T17:56:26.442Z,96905.00
2018-09-06T17:59:07.820Z,96903.00
2018-09-06T18:01:49.177Z,96904.00
2018-09-06T18:04:32.575Z,96904.00
2018-09-06T18:07:14.368Z,96907.00
2018-09-06T18:09:59.929Z,96910.00
2018-09-06T18:12:41.582Z,96911.00
2018-09-06T18:15:25.186Z,96913.00
2018-09-06T18:18:08.970Z,96919.00
2018-09-06T18:20:50.841Z,96915.00
2018-09-06T18:23:31.602Z,96915.00
2018-09-06T18:26:12.997Z,96917.00
2018-09-06T18:28:59.135Z,96916.00
2018-09-06T18:31:39.939Z,96920.00
2018-09-06T18:34:21.154Z,96914.00
2018-09-06T18:37:01.703Z,96914.00
2018-09-06T18:39:42.349Z,96925.00
2018-09-06T18:42:24.093Z,96914.00
2018-09-06T18:45:04.884Z,96916.00
2018-09-06T18:47:45.376Z,96920.00
2018-09-06T18:50:28.214Z,96919.00
2018-09-06T18:53:08.781Z,96915.00
2018-09-06T18:55:49.949Z,96913.00
2018-09-06T18:58:30.539Z,96908.00
2018-09-06T19:01:11.274Z,96916.00
2018-09-06T19:03:52.356Z,96913.00
2018-09-06T19:06:32.837Z,96905.00
2018-09-06T19:09:13.890Z,96903.00
2018-09-06T19:11:57.422Z,96915.00
2018-09-06T19:14:38.013Z,96915.00
2018-09-06T19:17:18.764Z,96919.00
2018-09-06T19:20:01.219Z,96906.00
2018-09-06T19:22:42.018Z,96913.00
2018-09-06T19:25:24.352Z,96914.00
2018-09-06T19:28:05.757Z,96909.00
2018-09-06T19:30:46.204Z,96908.00
2018-09-06T19:33:28.683Z,96911.00
2018-09-06T19:36:09.252Z,96902.00
2018-09-06T19:38:49.954Z,96900.00
2018-09-06T19:41:30.678Z,96905.00
2018-09-06T19:44:30.453Z,96909.00
2018-09-06T19:47:11.117Z,96901.00
2018-09-06T19:49:51.713Z,96888.00
2018-09-06T19:52:32.337Z,96890.00
2018-09-06T19:55:13.003Z,96890.00
2018-09-06T19:57:54.709Z,96886.00
2018-09-06T20:00:35.326Z,96892.00
2018-09-06T20:03:16.329Z,96886.00
2018-09-06T20:05:58.939Z,96886.00
2018-09-06T20:08:39.416Z,96885.00
2018-09-06T20:11:20.227Z,96883.00
2018-09-06T20:14:01.157Z,96890.00
2018-09-06T20:16:41.732Z,96894.00
2018-09-06T20:19:22.408Z,96884.00
2018-09-06T20:22:03.180Z,96899.00
2018-09-06T20:24:43.645Z,96894.00
2018-09-06T20:27:25.671Z,96891.00
2018-09-06T20:30:06.455Z,96893.00
2018-09-06T20:32:47.052Z,96897.00
2018-09-06T20:35:29.180Z,96891.00
2018-09-06T20:38:10.154Z,96885.00
2018-09-06T20:40:50.821Z,96888.00
2018-09-06T20:43:31.470Z,96888.00
2018-09-06T20:46:12.115Z,96883.00
2018-09-06T20:48:52.629Z,96888.00
2018-09-06T20:51:33.272Z,96886.00
2018-09-06T20:54:13.900Z,96882.00
2018-09-06T20:56:55.456Z,96874.00
2018-09-06T20:59:36.559Z,96885.00
2018-09-06T21:02:23.178Z,96882.00
2018-09-06T21:05:03.882Z,96877.00
2018-09-06T21:07:44.366Z,96876.00
2018-09-06T21:10:26.508Z,96882.00
2018-09-06T21:13:07.094Z,96877.00
2018-09-06T21:15:47.818Z,96875.00
2018-09-06T21:18:31.075Z,96873.00
2018-09-06T21:21:11.746Z,96871.00
2018-09-06T21:23:52.417Z,96876.00
2018-09-06T21:26:33.170Z,96871.00
2018-09-06T21:29:13.793Z,96872.00
2018-09-06T21:31:56.132Z,96885.00
2018-09-06T21:34:37.489Z,96878.00
2018-09-06T21:37:18.109Z,96883.00
2018-09-06T21:39:59.760Z,96884.00
2018-09-06T21:42:40.198Z,96884.00
2018-09-06T21:45:20.744Z,96877.00
2018-09-06T21:48:01.736Z,96877.00
2018-09-06T21:50:42.224Z,96884.00
2018-09-06T21:53:22.853Z,96873.00
2018-09-06T21:56:03.280Z,96877.00
2018-09-06T21:58:43.782Z,96878.00
2018-09-06T22:01:25.888Z,96878.00
2018-09-06T22:04:07.565Z,96885.00
2018-09-06T22:06:48.256Z,96888.00
2018-09-06T22:09:30.425Z,96885.00
2018-09-06T22:12:16.881Z,96883.00
2018-09-06T22:15:00.070Z,96883.00
2018-09-06T22:17:40.725Z,96882.00
2018-09-06T22:20:21.341Z,96878.00
2018-09-06T22:23:01.762Z,96878.00
2018-09-06T22:25:42.347Z,96871.00
2018-09-06T22:28:22.854Z,96886.00
2018-09-06T22:31:03.441Z,96874.00
2018-09-06T22:33:46.989Z,96871.00
2018-09-06T22:36:31.158Z,96860.00
2018-09-06T22:39:11.776Z,96858.00
2018-09-06T22:41:52.410Z,96860.00
2018-09-06T22:44:32.977Z,96859.00
2018-09-06T22:47:13.760Z,96856.00
2018-09-06T22:49:55.814Z,96858.00
2018-09-06T22:52:36.442Z,96858.00
2018-09-06T22:55:17.013Z,96853.00
2018-09-06T22:57:59.866Z,96849.00
2018-09-06T23:00:40.337Z,96844.00
2018-09-06T23:03:26.381Z,96846.00
2018-09-06T23:06:07.300Z,96840.00
2018-09-06T23:08:47.734Z,96838.00
2018-09-06T23:11:29.913Z,96843.00
2018-09-06T23:14:10.678Z,96840.00
2018-09-06T23:16:51.257Z,96840.00
2018-09-06T23:19:31.687Z,96839.00
2018-09-06T23:22:12.233Z,96837.00
2018-09-06T23:24:52.844Z,96842.00
2018-09-06T23:27:33.416Z,96836.00
2018-09-06T23:30:13.996Z,96839.00
2018-09-06T23:32:55.805Z,96829.00
2018-09-06T23:35:36.330Z,96828.00
2018-09-06T23:38:18.692Z,96822.00
2018-09-06T23:41:00.501Z,96818.00
2018-09-06T23:43:41.085Z,96825.00
2018-09-06T23:46:21.704Z,96824.00
2018-09-06T23:49:02.334Z,96821.00
2018-09-06T23:51:43.534Z,96832.00
2018-09-06T23:54:26.258Z,96829.00
2018-09-06T23:57:06.809Z,96830.00
2018-09-06T23:59:47.253Z,96829.00
